Date,TemperatureHighF,TemperatureAvgF,TemperatureLowF,DewpointHighF,DewpointAvgF,DewpointLowF,HumidityHigh,HumidityAvg,HumidityLow,PressureMaxIn,PressureMinIn,WindSpeedMaxMPH,WindSpeedAvgMPH,GustSpeedMaxMPH,PrecipitationSumIn
2013-6-2,63.8,62.3,61.3,23.1,21.9,21.0,21,21,21,19.22,19.21,5,3,6,0.03
2013-6-5,77.3,70.2,64.0,26.2,24.0,20.9,23,18,15,19.19,19.17,6,3,8,0.00
2013-6-6,90.1,72.7,58.8,36.2,28.6,23.3,39,21,13,19.21,19.18,8,4,11,0.00
2013-6-7,83.8,70.2,60.4,35.5,27.7,20.1,39,22,14,19.21,19.19,16,7,26,0.00
2013-6-8,81.5,66.7,52.8,28.5,21.6,13.9,26,18,14,19.21,19.19,11,6,17,0.00
2013-6-9,80.4,67.2,55.2,28.5,22.6,15.4,27,19,15,19.22,19.21,15,6,18,0.00
2013-6-10,82.0,65.6,49.8,28.3,22.4,13.9,39,20,14,19.23,19.19,8,4,13,0.00
2013-6-11,65.4,56.7,51.2,31.1,24.4,18.4,46,30,18,19.23,19.23,11,5,14,0.00
2013-6-13,59.3,54.2,50.1,28.1,22.2,17.9,42,29,22,19.24,19.22,5,3,8,0.04
2013-6-14,71.2,58.2,47.1,29.2,22.6,15.4,48,27,17,19.25,19.22,10,4,13,0.00
2013-6-15,82.7,64.6,45.6,28.6,24.6,18.5,49,24,14,19.24,19.19,8,2,11,0.00
2013-6-16,86.3,69.5,50.1,29.6,25.1,19.9,41,20,13,19.22,19.20,8,3,13,0.00
2013-6-17,87.8,72.4,59.0,30.8,25.6,19.6,26,18,13,19.21,19.18,10,4,13,0.00
2013-6-18,70.7,64.3,59.0,36.3,25.9,18.9,41,24,17,19.22,19.20,16,6,20,0.00
2013-6-19,59.0,54.3,50.7,40.9,34.7,22.7,63,49,25,19.25,19.23,7,3,11,0.47
2013-6-20,51.0,50.2,48.7,39.2,34.2,25.2,65,54,37,19.26,19.25,9,4,13,1.42
2013-6-21,69.8,57.3,48.3,38.6,28.4,18.5,68,38,17,19.26,19.21,8,2,11,0.04
2013-6-22,73.5,60.6,49.6,40.7,29.1,19.2,69,34,16,19.24,19.21,8,2,11,0.00
2013-6-23,81.5,64.4,48.9,40.5,28.7,21.5,68,31,14,19.24,19.20,8,2,11,0.00
2013-6-24,68.7,62.0,57.5,41.8,34.2,26.2,55,36,23,19.22,19.21,10,3,15,0.08
2013-6-25,73.5,61.2,51.8,42.4,32.3,24.6,64,36,18,19.23,19.22,9,3,13,0.20
2013-6-26,75.9,64.4,57.0,45.3,33.6,25.5,65,34,18,19.23,19.21,8,4,13,0.00
2013-6-27,81.3,68.7,57.2,43.1,33.3,25.8,56,30,17,19.22,19.19,10,3,15,0.00
2013-6-28,91.2,74.1,58.6,38.5,33.8,26.9,46,25,13,19.21,19.17,8,3,12,0.00
2013-6-29,76.1,68.8,61.8,44.2,37.5,30.7,51,33,21,19.20,19.20,14,5,21,0.04
2013-6-30,95.1,77.0,59.5,46.8,37.1,27.1,60,28,13,19.21,19.16,7,2,11,0.00
2013-7-1,97.8,80.1,62.4,43.6,36.7,30.6,50,23,13,19.19,19.16,12,4,18,0.00
2013-7-2,99.5,83.2,66.3,44.1,38.3,31.6,44,22,13,19.18,19.12,8,4,11,0.00
2013-7-3,94.1,79.2,68.5,47.4,34.0,23.7,43,21,13,19.19,19.17,11,5,15,0.00
2013-7-4,88.5,74.7,62.6,34.9,27.8,23.0,35,18,13,19.20,19.18,12,5,15,0.00
2013-7-5,83.6,71.7,59.9,32.7,25.7,20.1,34,19,14,19.20,19.18,10,4,13,0.00
2013-7-6,87.6,70.7,57.5,33.7,27.4,22.4,39,21,13,19.21,19.18,10,3,13,0.00
2013-7-7,90.1,73.2,56.3,35.3,28.1,22.5,44,20,12,19.21,19.18,11,3,15,0.00
2013-7-8,84.5,68.1,57.5,42.9,30.5,23.3,46,26,13,19.20,19.20,8,3,13,0.04
2013-7-9,92.4,73.2,54.6,40.0,31.8,23.3,51,25,12,19.22,19.17,7,2,11,0.00
2013-7-10,95.9,76.7,58.4,38.9,30.4,23.0,35,19,13,19.20,19.16,12,4,19,0.00
2013-7-11,87.4,72.0,61.8,30.5,25.0,18.5,27,18,13,19.20,19.19,11,5,16,0.00
2013-7-12,83.3,67.4,55.9,29.1,22.2,15.4,25,18,14,19.22,19.20,9,4,13,0.00
2013-7-13,82.5,68.2,56.6,28.5,23.7,18.5,28,19,14,19.21,19.19,8,3,11,0.00
2013-7-14,88.7,69.8,52.5,31.5,25.7,19.8,37,20,13,19.22,19.19,8,2,11,0.00
2013-7-15,89.9,71.2,56.4,32.0,25.8,18.5,35,19,12,19.21,19.18,10,4,13,0.00
2013-7-16,87.2,72.1,54.6,30.3,25.4,19.3,31,18,13,19.22,19.17,13,6,20,0.00
2013-7-17,94.8,78.6,65.3,44.4,33.6,23.9,46,21,13,19.18,19.16,12,4,15,0.08
2013-7-18,93.7,76.3,61.3,37.3,31.2,21.2,39,21,13,19.19,19.17,7,2,8,0.00
2013-7-19,93.9,77.1,60.4,37.4,28.9,20.2,31,18,13,19.20,19.16,10,3,16,0.00
2013-7-20,97.7,77.3,60.6,39.5,31.0,21.8,37,20,13,19.20,19.17,13,5,17,0.00
2013-7-21,93.3,76.4,59.7,37.0,27.5,18.5,30,17,13,19.20,19.17,11,5,13,0.00
2013-7-22,96.0,77.6,61.7,39.1,29.0,21.1,29,17,13,19.19,19.15,10,5,13,0.00
2013-7-23,98.9,78.5,61.7,39.5,30.0,21.5,33,18,13,19.19,19.18,9,4,13,0.00
2013-7-24,100.5,78.9,60.8,40.0,30.0,20.5,28,17,12,19.19,19.16,8,3,11,0.00
2013-7-25,100.7,79.1,61.8,40.3,30.7,22.4,31,18,12,19.19,19.16,9,4,11,0.00
2013-7-26,98.9,78.8,61.8,39.4,29.8,22.2,29,17,13,19.19,19.17,11,5,13,0.00
2013-7-27,88.8,74.5,62.6,35.2,24.7,18.5,18,16,13,19.20,19.18,10,5,13,0.00
2013-7-28,89.6,71.7,57.5,31.7,23.9,17.4,24,17,12,19.20,19.18,8,4,12,0.00
2013-7-29,89.6,70.9,57.0,32.0,25.3,18.5,27,19,12,19.21,19.18,6,2,11,0.00
2013-7-30,93.2,74.0,59.3,36.7,27.3,21.2,29,18,13,19.20,19.17,7,2,11,0.00
2013-7-31,85.2,72.9,58.4,29.6,26.2,21.1,31,18,13,19.20,19.18,11,4,16,0.00
2013-8-1,76.6,66.9,60.6,34.7,26.5,19.8,34,22,15,19.20,19.19,9,3,13,0.00
2013-8-2,62.0,59.5,57.3,47.5,42.4,33.2,66,53,34,19.22,19.22,8,3,11,1.14
2013-8-3,57.9,57.2,56.6,48.1,46.4,45.0,70,67,65,19.23,19.23,3,0,4,0.04
2013-8-5,84.3,74.1,66.7,35.1,29.8,24.9,31,20,13,30.25,30.10,4,2,6,0.00
2013-8-6,95.3,74.5,58.8,39.1,32.6,24.3,47,24,13,30.32,30.11,7,2,9,0.00
2013-8-7,95.3,75.1,59.1,38.9,31.8,23.0,45,22,13,30.28,30.06,7,3,12,0.00
2013-8-8,95.1,74.2,59.1,38.4,30.2,24.0,41,21,13,30.31,30.07,7,3,10,0.00
2013-8-9,97.5,77.5,63.8,39.1,31.7,27.0,33,20,13,30.24,30.01,11,4,15,0.00
2013-8-10,95.0,76.8,64.9,38.5,32.1,27.2,35,20,13,30.29,30.04,11,4,15,0.04
2013-8-11,93.5,77.4,64.7,37.1,30.0,23.1,27,18,13,30.32,30.08,8,2,11,0.00
2013-8-12,96.0,77.1,63.5,40.3,32.2,23.1,42,21,13,30.34,30.10,8,2,11,0.00
2013-8-13,90.6,75.1,64.4,37.5,31.6,24.5,35,22,13,30.38,30.18,7,2,8,0.00
2013-8-14,96.4,74.4,59.5,40.1,32.8,24.3,47,24,13,30.34,30.06,8,3,12,0.00
2013-8-15,96.6,76.2,63.1,39.5,31.6,24.6,34,21,13,30.28,30.07,8,3,11,0.00
2013-8-16,92.8,74.6,64.2,40.1,31.3,23.0,41,22,13,30.29,30.16,13,4,16,0.00
2013-8-17,93.5,74.9,61.8,37.1,31.1,22.8,36,21,13,30.35,30.12,12,5,16,0.00
2013-8-18,68.3,64.2,61.7,37.7,31.8,25.5,40,30,23,30.37,30.27,6,4,10,0.00
2013-8-19,78.0,72.7,67.6,26.6,23.9,21.2,17,16,15,30.27,30.19,5,3,8,0.00
2013-8-20,88.1,70.4,58.8,31.2,25.6,18.4,35,19,13,30.37,30.20,9,4,17,0.00
2013-8-21,91.7,69.0,52.1,36.9,24.0,15.3,34,19,13,30.48,30.19,9,3,13,0.00
2013-8-22,94.8,73.7,55.9,37.3,27.4,20.7,35,19,13,30.36,30.01,11,3,20,0.00
2013-8-23,88.8,73.3,64.7,35.8,27.0,21.2,31,18,13,30.16,30.02,11,3,13,0.00
2013-8-24,92.3,71.7,59.1,41.8,31.1,23.1,52,25,13,30.22,29.97,11,3,13,0.00
2013-8-25,90.1,71.6,60.8,45.3,32.2,22.8,56,26,13,30.27,30.00,17,3,25,0.16
2013-8-26,84.3,68.6,58.6,48.5,32.6,22.4,60,30,13,30.35,30.15,8,3,11,0.00
2013-8-27,92.3,69.2,57.0,37.4,30.4,22.5,46,26,13,30.35,30.06,5,1,8,0.00
2013-8-28,88.5,71.1,58.6,35.8,29.5,23.0,40,23,13,30.22,30.09,8,2,15,0.00
2013-8-29,81.8,68.1,58.1,41.7,31.7,23.3,40,27,14,30.35,30.18,8,1,10,0.04
2013-8-30,81.3,69.2,60.6,45.7,31.9,20.1,54,28,14,30.46,30.28,11,4,17,0.16
2013-8-31,91.7,68.0,52.3,36.9,29.1,22.7,47,26,12,30.51,30.16,7,2,8,0.00
2013-9-1,90.8,71.9,55.5,36.7,28.8,23.3,38,22,13,30.30,29.98,10,3,15,0.00
2013-9-2,71.4,66.6,62.7,48.8,36.0,23.3,60,34,19,30.26,30.08,7,2,9,0.04
2013-9-3,81.8,68.8,61.1,48.5,39.1,30.2,62,37,17,30.32,30.18,6,1,8,0.00
2013-9-4,96.2,72.1,60.9,48.1,38.1,27.2,58,33,13,30.37,30.18,10,2,14,0.00
2013-9-5,78.0,69.6,62.6,53.0,42.0,33.8,66,39,21,30.38,30.12,12,3,17,0.78
2013-9-6,68.0,62.6,58.6,52.5,38.1,26.5,70,43,22,30.44,30.23,8,2,11,0.16
2013-9-7,82.0,63.6,56.4,43.5,33.6,22.5,58,36,14,30.49,30.30,7,2,11,0.00
2013-9-8,75.9,61.6,54.6,48.4,35.2,21.5,73,43,15,30.44,30.27,11,3,14,0.00
2013-9-9,89.0,68.2,57.9,40.3,31.2,22.2,51,28,13,30.37,30.16,9,3,11,0.00
2013-9-10,92.8,69.4,55.9,41.3,32.6,24.3,54,29,12,30.40,30.19,9,2,11,0.00
2013-9-11,95.3,72.5,57.9,40.5,31.6,23.0,51,25,13,30.44,30.21,10,4,16,0.00
2013-9-12,98.9,75.0,62.4,39.4,28.9,22.7,32,19,13,30.36,30.08,8,3,13,0.00
2013-9-13,94.8,71.0,57.9,40.9,33.3,23.1,50,28,13,30.22,29.96,7,2,10,0.00
2013-9-14,91.2,72.6,59.1,40.3,31.8,22.0,46,25,13,30.25,30.05,10,2,16,0.00
2013-9-15,95.5,70.4,60.0,42.0,25.7,18.8,44,19,13,30.21,29.91,16,4,26,0.08
2013-9-16,71.6,63.3,58.4,48.3,34.4,20.6,60,36,19,30.28,30.10,10,2,13,0.00
2013-9-17,70.8,60.4,53.9,41.6,31.2,20.1,57,36,17,30.21,29.95,12,4,18,0.16
2013-9-18,64.7,55.7,50.7,39.8,28.7,18.5,58,38,18,30.48,30.11,11,4,18,0.04
2013-9-19,68.7,56.6,47.3,36.4,26.1,16.3,62,34,17,30.59,30.29,7,3,11,0.00
2013-9-20,74.3,59.1,46.9,31.5,25.1,18.4,54,30,16,30.36,29.87,9,4,15,0.00
2013-9-21,66.5,59.4,50.9,30.9,23.2,15.3,44,25,17,30.09,29.91,9,3,14,0.00
2013-9-22,62.6,54.9,48.9,38.9,27.4,16.8,64,37,18,30.15,30.01,11,5,15,0.04
2013-9-23,61.1,55.2,49.6,33.3,23.6,15.3,48,31,19,30.34,30.09,11,5,15,0.04
2013-9-24,60.0,54.2,50.1,36.3,24.4,15.3,54,32,19,30.31,30.12,9,2,13,0.08
2013-9-25,55.9,49.8,45.1,32.0,26.5,18.4,54,41,25,30.32,30.16,12,2,15,0.12
2013-9-26,60.9,50.7,43.5,27.4,20.5,12.0,51,32,19,30.45,30.31,11,3,14,0.00
2013-9-27,57.0,49.1,44.2,35.6,21.0,13.5,63,34,20,30.45,30.33,13,5,17,0.08
2013-9-28,55.9,52.2,47.4,41.0,36.1,29.0,67,55,36,30.34,29.85,13,6,20,0.39
2013-9-29,55.0,50.4,47.3,38.7,26.1,18.7,58,39,26,30.10,29.86,15,7,22,0.24
2013-9-30,58.8,51.3,44.7,38.2,19.5,14.5,66,30,19,30.30,29.82,16,8,28,0.20
2013-10-1,53.0,47.1,41.1,27.2,20.7,15.5,47,35,26,30.55,30.30,9,4,15,0.08
2013-10-2,53.6,46.8,41.1,24.1,17.8,12.6,49,32,20,30.60,30.39,9,4,13,0.00
2013-10-3,57.7,46.7,37.4,21.9,16.5,10.1,50,31,19,30.86,30.46,11,4,15,0.00
2013-10-4,56.1,43.1,32.5,23.4,16.5,8.1,56,37,20,31.00,30.75,8,1,9,0.00
2013-10-5,60.8,48.0,38.3,26.4,19.3,12.5,57,35,19,30.87,30.63,8,3,12,0.00
2013-10-6,65.6,49.3,35.9,31.4,22.3,14.7,67,38,18,30.72,30.30,7,2,8,0.00
2013-10-7,63.1,50.3,43.8,28.9,21.4,14.2,54,33,18,30.39,30.17,13,6,20,0.00
2013-10-8,49.6,44.2,38.6,27.6,24.1,15.2,62,45,29,30.45,30.30,10,4,14,0.12
2013-10-9,55.4,44.7,37.4,31.1,24.3,15.1,74,48,22,30.52,30.27,7,2,12,0.00
2013-10-10,53.4,46.0,36.6,29.7,23.0,15.3,58,42,23,30.43,30.23,7,1,11,0.00
2013-10-11,53.7,43.7,35.7,28.3,20.6,12.6,63,42,20,30.58,30.42,2,0,5,0.00
2013-10-12,55.7,46.0,37.9,20.5,15.1,9.6,42,30,20,30.58,30.39,9,4,15,0.00
2013-10-13,54.3,41.9,31.1,24.4,14.8,6.8,59,35,20,30.72,30.53,7,2,10,0.00
2013-10-14,56.4,42.3,32.5,27.1,15.7,6.3,67,37,19,30.88,30.70,11,2,13,0.00
2013-10-15,55.4,41.9,30.9,26.7,16.7,9.1,66,39,20,30.91,30.59,6,0,8,0.00
2013-10-16,57.5,46.6,38.1,24.6,18.4,11.3,49,34,19,30.61,30.48,6,2,9,0.00
2013-10-17,56.8,43.9,35.6,30.4,21.1,10.5,65,43,20,30.70,30.55,6,1,7,0.00
2013-10-18,56.1,44.8,35.6,34.0,24.3,12.5,76,49,20,30.75,30.54,8,3,10,0.00
2013-10-19,57.9,46.3,37.7,34.7,24.1,10.8,76,47,19,30.64,30.43,7,3,10,0.00
2013-10-20,58.6,46.7,37.4,34.5,24.6,15.3,73,45,19,30.64,30.48,7,3,9,0.00
2013-10-21,60.8,47.9,37.9,36.8,26.5,15.6,74,48,19,30.69,30.50,6,1,8,0.00
2013-10-22,60.9,46.9,38.1,38.9,27.5,20.0,76,51,21,30.70,30.47,4,0,6,0.00
2013-10-23,56.6,46.0,39.9,36.1,28.6,20.7,76,54,25,30.63,30.46,8,2,11,0.00
2013-10-24,59.5,47.4,41.0,36.4,29.1,17.3,75,53,22,30.58,30.41,5,1,9,0.00
2013-10-25,54.3,44.0,38.4,36.3,28.2,21.4,76,56,28,30.74,30.57,6,1,8,0.00
2013-10-26,52.8,43.7,38.8,34.4,28.0,20.6,75,56,28,30.76,30.50,7,1,8,0.00
2013-10-27,48.3,42.9,35.0,37.8,25.0,5.7,76,53,22,30.51,30.17,15,5,25,0.12
2013-10-28,46.0,37.4,32.7,21.3,7.0,0.0,59,29,20,30.51,30.31,15,8,24,0.00
2013-10-29,46.4,36.0,26.0,11.0,2.8,-4.0,43,24,19,30.51,30.34,8,2,14,0.00
2013-10-30,47.1,37.3,28.2,18.3,11.4,4.5,57,36,22,30.60,30.47,9,3,11,0.00
2013-10-31,50.9,44.2,38.4,26.4,17.1,11.8,60,35,26,30.57,30.47,9,4,15,0.00
2013-11-1,54.1,42.8,36.8,34.2,23.4,14.7,75,49,25,30.72,30.46,8,3,10,0.00
2013-11-2,50.1,42.8,36.5,38.5,22.7,9.9,74,48,24,30.46,29.97,19,5,26,0.28
2013-11-3,41.9,37.1,33.4,22.3,14.6,6.4,55,40,26,30.44,30.23,8,4,13,0.04
2013-11-4,39.5,35.2,32.5,19.3,13.0,8.0,55,41,28,30.64,30.44,6,2,9,0.00
2013-11-5,35.6,33.6,31.1,25.0,17.4,9.0,65,51,36,30.68,30.56,6,2,9,0.04
2013-11-6,41.5,37.1,34.7,25.9,22.1,15.4,68,55,35,30.83,30.66,9,2,11,0.08
2013-11-7,44.2,38.2,34.7,35.2,25.3,18.9,73,60,38,30.73,30.14,12,5,20,0.51
2013-11-8,47.8,41.7,33.2,24.7,17.9,9.1,54,39,22,30.64,30.33,11,4,16,0.00
2013-11-9,44.2,38.1,32.0,26.0,21.0,15.7,67,51,33,30.70,30.52,8,3,12,0.00
2013-11-10,43.5,40.1,38.4,28.2,25.7,22.7,66,56,45,30.70,30.55,9,4,15,0.00
2013-11-11,47.1,41.4,38.3,22.8,20.8,17.7,53,44,31,30.81,30.70,12,7,17,0.00
2013-11-12,46.9,42.0,34.8,30.0,24.0,18.7,68,49,37,30.78,30.67,8,3,13,0.00
2013-11-13,48.5,43.9,41.7,35.4,24.4,15.0,69,48,27,30.79,30.69,8,2,13,0.00
2013-11-14,47.3,42.1,37.9,29.7,23.4,17.5,63,48,31,30.69,30.35,8,2,11,0.00
2013-11-15,40.8,36.9,33.8,24.8,19.5,11.7,68,50,31,30.36,29.76,11,4,18,0.20
2013-11-16,41.0,36.2,33.8,24.9,19.2,12.5,66,50,35,30.12,29.65,11,4,15,0.31
2013-11-17,43.8,38.1,32.3,20.4,14.6,8.2,45,38,28,30.36,30.12,11,4,16,0.00
2013-11-18,47.8,44.5,41.7,27.3,13.9,11.1,54,29,24,30.35,30.11,12,5,17,0.04
2013-11-19,55.7,47.3,37.9,27.7,18.1,4.4,58,32,22,30.23,29.91,16,7,24,0.08
2013-11-20,38.8,30.6,23.1,5.1,-2.4,-8.0,24,23,21,30.95,30.22,9,4,13,0.00
2013-11-21,32.3,23.3,17.4,-1.0,-6.0,-11.0,34,26,23,31.24,30.95,7,1,10,0.00
2013-11-22,34.7,24.9,15.9,2.7,-1.1,-6.0,44,32,22,31.31,31.12,9,3,13,0.00
2013-11-23,36.3,26.9,21.5,4.4,0.9,-3.0,42,32,22,31.18,30.83,8,3,13,0.00
2013-11-24,39.2,28.0,20.3,10.5,5.0,0.0,51,38,23,30.87,30.67,5,0,6,0.00
2013-11-25,39.9,31.4,24.6,11.8,9.2,6.5,53,40,28,30.96,30.82,7,2,12,0.00
2013-11-26,39.7,30.5,24.6,21.4,11.5,7.4,66,46,29,30.88,30.65,5,1,6,0.00
2013-11-27,38.8,31.2,26.0,20.7,14.6,8.6,72,51,30,30.74,30.54,8,3,11,0.00
2013-11-28,36.3,29.8,26.0,19.9,15.0,9.0,69,55,33,30.70,30.56,4,1,6,0.00
2013-11-29,34.3,31.4,28.2,24.6,21.9,18.3,74,68,60,30.75,30.66,6,1,6,0.00
2013-11-30,38.4,35.6,33.0,26.5,23.0,18.3,66,60,45,30.74,30.58,7,1,10,0.04
2013-12-1,46.7,41.5,36.3,34.2,26.7,16.0,71,56,29,30.59,30.02,17,4,20,0.67
2013-12-2,46.5,34.9,25.5,21.8,6.8,-2.0,45,31,23,30.49,29.99,18,8,26,0.00
2013-12-3,27.1,23.3,17.2,-2.0,-7.1,-12.0,29,25,23,30.79,30.49,15,7,20,0.00
2013-12-4,24.4,17.4,10.5,-6.0,-11.0,-16.0,33,26,24,30.89,30.75,7,2,8,0.00
2013-12-5,21.2,17.4,12.0,-4.0,-8.1,-10.0,42,31,25,30.83,30.74,7,4,10,0.00
2013-12-6,17.0,10.7,5.1,-6.0,-12.9,-21.0,40,33,26,30.91,30.76,11,7,16,0.00
2013-12-7,12.9,6.6,2.2,-14.0,-19.7,-24.0,27,27,27,30.94,30.75,14,6,20,0.00
2013-12-8,12.9,9.2,2.2,-14.0,-17.5,-24.0,27,27,27,31.05,30.94,6,2,9,0.00
2013-12-9,23.1,18.7,12.3,-3.0,-8.1,-15.0,32,28,27,31.05,30.82,7,3,9,0.00
2013-12-10,28.9,23.9,20.1,1.5,-1.1,-5.0,36,32,28,30.94,30.82,8,2,11,0.00
2013-12-11,36.1,28.9,23.5,7.6,2.6,-2.0,43,32,27,30.95,30.76,6,2,9,0.00
2013-12-12,36.1,29.6,23.9,24.0,12.0,7.4,68,48,32,30.82,30.55,6,1,9,0.00
2013-12-13,34.8,33.4,32.1,23.2,20.1,17.2,65,58,51,30.86,30.61,6,1,11,0.04
2013-12-14,41.7,37.1,33.6,29.0,22.9,18.6,69,57,42,30.89,30.72,8,3,13,0.04
2013-12-15,46.4,39.5,32.7,22.9,17.9,12.4,63,43,28,30.77,30.60,13,6,18,0.00
2013-12-16,43.5,37.0,31.2,23.1,18.0,13.7,62,46,31,30.84,30.73,11,3,17,0.00
2013-12-17,47.3,36.5,30.2,26.7,15.4,5.1,74,46,22,30.81,30.40,7,2,9,0.00
2013-12-18,37.9,33.5,28.9,17.9,14.4,8.0,54,45,39,30.47,30.29,8,2,13,0.00
2013-12-19,33.0,27.5,21.2,16.3,0.5,-3.0,53,30,23,30.70,30.42,9,4,13,0.00
2013-12-20,27.6,25.4,22.6,11.7,3.4,-6.0,53,39,26,30.63,30.12,8,4,13,0.00
2013-12-21,31.6,28.8,25.7,17.3,11.5,7.4,57,48,41,30.56,30.26,8,1,9,0.00
2013-12-22,36.3,32.8,29.4,25.5,18.8,14.3,67,56,42,30.73,30.56,5,0,6,0.00
2013-12-23,44.4,37.8,33.4,31.2,23.5,11.3,74,57,33,30.77,30.39,17,5,28,0.55
2013-12-24,37.5,31.6,26.4,16.8,12.6,8.4,61,46,30,31.03,30.76,8,3,12,0.00
2013-12-25,37.0,30.0,25.1,22.1,16.3,8.3,75,58,30,31.06,30.82,4,1,6,0.00
2013-12-26,39.0,31.7,26.4,20.3,14.7,11.5,64,50,32,30.93,30.74,4,0,5,0.00
2013-12-27,36.8,30.9,24.9,22.7,16.0,9.3,73,55,33,30.80,30.47,9,1,13,0.00
2013-12-28,32.5,30.2,28.4,18.0,13.9,10.5,62,51,40,30.92,30.64,7,2,8,0.00
2013-12-29,34.8,30.5,25.3,17.4,13.8,10.2,58,50,42,30.92,30.69,11,1,13,0.00
2013-12-30,35.7,31.2,25.8,23.7,17.4,13.1,70,57,40,30.81,30.53,5,0,9,0.00
2013-12-31,35.9,34.3,31.6,22.5,19.4,16.9,61,54,50,30.80,30.54,5,0,11,0.04
2014-1-1,37.4,33.3,31.4,25.0,21.0,15.8,72,61,41,30.93,30.80,4,0,8,0.00
2014-1-2,43.3,37.4,32.1,27.6,18.6,11.0,75,50,29,30.80,30.17,11,0,20,0.00